sensor_id;sensor_type;location;lat;lon;timestamp;P1;durP1;ratioP1;P2;durP2;ratioP2
5125;SDS011;63008;53.112;8.896;2024-03-23T00:55:41;28.30;;;4.73;;
5125;SDS011;63008;53.112;8.896;2024-03-23T00:57:42;20.17;;;4.20;;
5125;SDS011;63008;53.112;8.896;2024-03-23T00:59:44;24.77;;;4.43;;
5125;SDS011;63008;53.112;8.896;2024-03-23T01:01:45;36.57;;;4.50;;
5125;SDS011;63008;53.112;8.896;2024-03-23T01:03:46;35.47;;;6.93;;
5125;SDS011;63008;53.112;8.896;2024-03-23T01:05:47;34.13;;;4.40;;
5125;SDS011;63008;53.112;8.896;2024-03-23T01:07:49;38.50;;;5.17;;
5125;SDS011;63008;53.112;8.896;2024-03-23T01:09:50;30.67;;;4.97;;
5125;SDS011;63008;53.112;8.896;2024-03-23T01:11:52;27.33;;;4.57;;
5125;SDS011;63008;53.112;8.896;2024-03-23T01:13:53;30.00;;;5.17;;
5125;SDS011;63008;53.112;8.896;2024-03-23T01:15:56;33.30;;;5.17;;
5125;SDS011;63008;53.112;8.896;2024-03-23T01:17:57;22.10;;;4.03;;
5125;SDS011;63008;53.112;8.896;2024-03-23T01:19:58;35.80;;;4.90;;
5125;SDS011;63008;53.112;8.896;2024-03-23T01:21:59;33.63;;;5.10;;
5125;SDS011;63008;53.112;8.896;2024-03-23T01:24:00;41.77;;;4.70;;
5125;SDS011;63008;53.112;8.896;2024-03-23T01:26:01;32.07;;;5.03;;
5125;SDS011;63008;53.112;8.896;2024-03-23T01:28:02;24.33;;;4.53;;
5125;SDS011;63008;53.112;8.896;2024-03-23T01:30:03;30.40;;;5.10;;
5125;SDS011;63008;53.112;8.896;2024-03-23T01:32:05;26.00;;;4.27;;
5125;SDS011;63008;53.112;8.896;2024-03-23T01:34:06;39.27;;;4.67;;
5125;SDS011;63008;53.112;8.896;2024-03-23T01:36:07;28.13;;;4.90;;
5125;SDS011;63008;53.112;8.896;2024-03-23T01:38:08;48.30;;;5.70;;
5125;SDS011;63008;53.112;8.896;2024-03-23T01:40:09;27.57;;;4.70;;
5125;SDS011;63008;53.112;8.896;2024-03-23T01:42:10;23.50;;;4.13;;
5125;SDS011;63008;53.112;8.896;2024-03-23T01:44:12;38.70;;;5.20;;
5125;SDS011;63008;53.112;8.896;2024-03-23T01:46:13;24.63;;;4.73;;
5125;SDS011;63008;53.112;8.896;2024-03-23T01:48:14;28.50;;;4.47;;
5125;SDS011;63008;53.112;8.896;2024-03-23T01:50:15;22.90;;;5.50;;
5125;SDS011;63008;53.112;8.896;2024-03-23T01:52:16;20.83;;;4.00;;
5125;SDS011;63008;53.112;8.896;2024-03-23T01:54:17;14.90;;;3.97;;
5125;SDS011;63008;53.112;8.896;2024-03-23T01:56:19;29.27;;;5.47;;
5125;SDS011;63008;53.112;8.896;2024-03-23T01:58:21;19.33;;;4.17;;
5125;SDS011;63008;53.112;8.896;2024-03-23T02:00:22;26.37;;;4.47;;
5125;SDS011;63008;53.112;8.896;2024-03-23T02:02:23;24.27;;;3.80;;
5125;SDS011;63008;53.112;8.896;2024-03-23T02:04:24;26.77;;;4.00;;
5125;SDS011;63008;53.112;8.896;2024-03-23T02:06:25;26.80;;;4.73;;
5125;SDS011;63008;53.112;8.896;2024-03-23T02:08:26;17.23;;;3.60;;
5125;SDS011;63008;53.112;8.896;2024-03-23T02:10:27;27.00;;;5.70;;
5125;SDS011;63008;53.112;8.896;2024-03-23T02:12:28;27.27;;;4.20;;
5125;SDS011;63008;53.112;8.896;2024-03-23T02:14:29;24.90;;;5.37;;
5125;SDS011;63008;53.112;8.896;2024-03-23T02:16:30;28.80;;;5.20;;
5125;SDS011;63008;53.112;8.896;2024-03-23T02:18:34;21.50;;;5.07;;
5125;SDS011;63008;53.112;8.896;2024-03-23T02:20:35;24.70;;;4.77;;
5125;SDS011;63008;53.112;8.896;2024-03-23T02:22:36;27.73;;;4.23;;
5125;SDS011;63008;53.112;8.896;2024-03-23T02:24:38;28.87;;;5.00;;
5125;SDS011;63008;53.112;8.896;2024-03-23T02:26:39;25.30;;;4.23;;
5125;SDS011;63008;53.112;8.896;2024-03-23T02:28:40;21.27;;;4.70;;
5125;SDS011;63008;53.112;8.896;2024-03-23T02:30:41;18.47;;;4.57;;
5125;SDS011;63008;53.112;8.896;2024-03-23T02:32:42;26.17;;;5.37;;
5125;SDS011;63008;53.112;8.896;2024-03-23T02:34:43;31.07;;;4.90;;
5125;SDS011;63008;53.112;8.896;2024-03-23T02:36:44;25.93;;;4.73;;
5125;SDS011;63008;53.112;8.896;2024-03-23T02:38:45;18.13;;;3.40;;
5125;SDS011;63008;53.112;8.896;2024-03-23T02:40:46;30.63;;;5.37;;
5125;SDS011;63008;53.112;8.896;2024-03-23T02:42:47;22.70;;;4.80;;
5125;SDS011;63008;53.112;8.896;2024-03-23T02:44:48;28.63;;;3.90;;
5125;SDS011;63008;53.112;8.896;2024-03-23T02:46:49;27.37;;;5.47;;
5125;SDS011;63008;53.112;8.896;2024-03-23T02:48:50;28.07;;;4.70;;
5125;SDS011;63008;53.112;8.896;2024-03-23T02:50:51;24.13;;;3.90;;
5125;SDS011;63008;53.112;8.896;2024-03-23T02:52:52;19.80;;;3.33;;
5125;SDS011;63008;53.112;8.896;2024-03-23T02:54:53;22.43;;;4.70;;
5125;SDS011;63008;53.112;8.896;2024-03-23T02:56:54;23.33;;;4.57;;
5125;SDS011;63008;53.112;8.896;2024-03-23T02:58:56;31.00;;;4.83;;
5125;SDS011;63008;53.112;8.896;2024-03-23T03:00:57;27.80;;;5.33;;
5125;SDS011;63008;53.112;8.896;2024-03-23T03:02:58;29.20;;;4.30;;
5125;SDS011;63008;53.112;8.896;2024-03-23T03:04:59;28.93;;;4.90;;
5125;SDS011;63008;53.112;8.896;2024-03-23T03:07:00;23.40;;;4.60;;
5125;SDS011;63008;53.112;8.896;2024-03-23T03:09:01;22.40;;;4.70;;
5125;SDS011;63008;53.112;8.896;2024-03-23T03:11:02;30.20;;;5.07;;
5125;SDS011;63008;53.112;8.896;2024-03-23T03:13:03;29.27;;;4.93;;
5125;SDS011;63008;53.112;8.896;2024-03-23T03:15:04;32.40;;;5.60;;
5125;SDS011;63008;53.112;8.896;2024-03-23T03:17:05;19.17;;;4.10;;
5125;SDS011;63008;53.112;8.896;2024-03-23T03:19:06;21.17;;;4.57;;
5125;SDS011;63008;53.112;8.896;2024-03-23T03:21:07;22.80;;;3.30;;
5125;SDS011;63008;53.112;8.896;2024-03-23T03:23:11;23.23;;;5.00;;
5125;SDS011;63008;53.112;8.896;2024-03-23T03:25:12;21.83;;;4.70;;
5125;SDS011;63008;53.112;8.896;2024-03-23T03:27:13;26.20;;;3.90;;
5125;SDS011;63008;53.112;8.896;2024-03-23T03:29:14;22.80;;;4.67;;
5125;SDS011;63008;53.112;8.896;2024-03-23T03:31:15;32.30;;;4.83;;
5125;SDS011;63008;53.112;8.896;2024-03-23T03:33:17;28.07;;;5.57;;
5125;SDS011;63008;53.112;8.896;2024-03-23T03:35:18;34.60;;;4.93;;
5125;SDS011;63008;53.112;8.896;2024-03-23T03:37:19;25.90;;;3.77;;
5125;SDS011;63008;53.112;8.896;2024-03-23T03:39:19;24.87;;;5.43;;
5125;SDS011;63008;53.112;8.896;2024-03-23T03:41:20;37.63;;;6.53;;
5125;SDS011;63008;53.112;8.896;2024-03-23T03:43:21;21.80;;;4.33;;
5125;SDS011;63008;53.112;8.896;2024-03-23T03:45:22;27.40;;;4.80;;
5125;SDS011;63008;53.112;8.896;2024-03-23T03:47:23;44.73;;;5.30;;
5125;SDS011;63008;53.112;8.896;2024-03-23T03:49:24;23.70;;;4.10;;
5125;SDS011;63008;53.112;8.896;2024-03-23T03:51:25;20.90;;;5.17;;
5125;SDS011;63008;53.112;8.896;2024-03-23T03:53:26;18.60;;;4.40;;
5125;SDS011;63008;53.112;8.896;2024-03-23T03:55:27;30.73;;;4.63;;
5125;SDS011;63008;53.112;8.896;2024-03-23T03:57:28;30.67;;;5.10;;
5125;SDS011;63008;53.112;8.896;2024-03-23T03:59:29;28.90;;;4.53;;
5125;SDS011;63008;53.112;8.896;2024-03-23T04:01:30;20.13;;;4.50;;
5125;SDS011;63008;53.112;8.896;2024-03-23T04:03:31;22.80;;;4.37;;
5125;SDS011;63008;53.112;8.896;2024-03-23T04:05:32;25.20;;;4.23;;
5125;SDS011;63008;53.112;8.896;2024-03-23T04:07:33;27.23;;;4.67;;
5125;SDS011;63008;53.112;8.896;2024-03-23T04:09:34;31.20;;;4.90;;
5125;SDS011;63008;53.112;8.896;2024-03-23T04:11:36;24.40;;;4.40;;
5125;SDS011;63008;53.112;8.896;2024-03-23T04:13:37;36.43;;;5.20;;
5125;SDS011;63008;53.112;8.896;2024-03-23T04:15:38;24.00;;;4.50;;
5125;SDS011;63008;53.112;8.896;2024-03-23T04:17:39;30.93;;;4.40;;
5125;SDS011;63008;53.112;8.896;2024-03-23T04:19:40;31.87;;;4.80;;
5125;SDS011;63008;53.112;8.896;2024-03-23T04:21:41;19.10;;;3.40;;
5125;SDS011;63008;53.112;8.896;2024-03-23T04:23:42;22.40;;;4.60;;
5125;SDS011;63008;53.112;8.896;2024-03-23T04:25:43;36.17;;;5.33;;
5125;SDS011;63008;53.112;8.896;2024-03-23T04:27:44;22.63;;;4.10;;
5125;SDS011;63008;53.112;8.896;2024-03-23T04:29:52;32.57;;;4.80;;
5125;SDS011;63008;53.112;8.896;2024-03-23T04:31:53;16.67;;;4.17;;
5125;SDS011;63008;53.112;8.896;2024-03-23T04:33:55;25.87;;;4.90;;
5125;SDS011;63008;53.112;8.896;2024-03-23T04:35:56;35.93;;;6.30;;
5125;SDS011;63008;53.112;8.896;2024-03-23T04:37:57;28.37;;;5.17;;
5125;SDS011;63008;53.112;8.896;2024-03-23T04:39:59;29.77;;;4.97;;
5125;SDS011;63008;53.112;8.896;2024-03-23T04:42:02;20.00;;;6.13;;
5125;SDS011;63008;53.112;8.896;2024-03-23T04:44:03;23.07;;;4.57;;
5125;SDS011;63008;53.112;8.896;2024-03-23T04:46:04;28.10;;;4.40;;
5125;SDS011;63008;53.112;8.896;2024-03-23T04:48:06;27.23;;;4.10;;
5125;SDS011;63008;53.112;8.896;2024-03-23T04:50:07;32.90;;;5.63;;
5125;SDS011;63008;53.112;8.896;2024-03-23T04:52:11;28.37;;;4.80;;
5125;SDS011;63008;53.112;8.896;2024-03-23T04:54:12;23.47;;;3.83;;
5125;SDS011;63008;53.112;8.896;2024-03-23T04:56:14;27.40;;;5.43;;
5125;SDS011;63008;53.112;8.896;2024-03-23T04:58:16;19.77;;;5.70;;
5125;SDS011;63008;53.112;8.896;2024-03-23T05:00:17;23.10;;;4.30;;
5125;SDS011;63008;53.112;8.896;2024-03-23T05:02:18;22.63;;;4.63;;
5125;SDS011;63008;53.112;8.896;2024-03-23T05:04:19;26.63;;;5.43;;
5125;SDS011;63008;53.112;8.896;2024-03-23T05:06:20;27.97;;;4.77;;
5125;SDS011;63008;53.112;8.896;2024-03-23T05:08:21;22.90;;;3.73;;
5125;SDS011;63008;53.112;8.896;2024-03-23T05:10:22;22.93;;;4.23;;
5125;SDS011;63008;53.112;8.896;2024-03-23T05:12:23;24.03;;;4.33;;
5125;SDS011;63008;53.112;8.896;2024-03-23T05:14:24;29.73;;;4.70;;
5125;SDS011;63008;53.112;8.896;2024-03-23T05:16:26;28.50;;;6.00;;
5125;SDS011;63008;53.112;8.896;2024-03-23T05:18:27;21.27;;;4.00;;
5125;SDS011;63008;53.112;8.896;2024-03-23T05:20:29;33.03;;;5.40;;
5125;SDS011;63008;53.112;8.896;2024-03-23T05:22:30;22.00;;;4.90;;
5125;SDS011;63008;53.112;8.896;2024-03-23T05:24:31;31.50;;;5.63;;
5125;SDS011;63008;53.112;8.896;2024-03-23T05:26:32;24.63;;;4.73;;
5125;SDS011;63008;53.112;8.896;2024-03-23T05:28:34;27.47;;;4.57;;
5125;SDS011;63008;53.112;8.896;2024-03-23T05:30:35;27.90;;;5.87;;
5125;SDS011;63008;53.112;8.896;2024-03-23T05:32:36;27.03;;;4.60;;
5125;SDS011;63008;53.112;8.896;2024-03-23T05:34:40;33.50;;;5.27;;
5125;SDS011;63008;53.112;8.896;2024-03-23T05:36:41;22.90;;;5.20;;
5125;SDS011;63008;53.112;8.896;2024-03-23T05:38:42;24.27;;;4.83;;
5125;SDS011;63008;53.112;8.896;2024-03-23T05:40:52;29.67;;;5.27;;
5125;SDS011;63008;53.112;8.896;2024-03-23T05:42:54;21.93;;;5.20;;
5125;SDS011;63008;53.112;8.896;2024-03-23T05:44:56;28.53;;;5.47;;
5125;SDS011;63008;53.112;8.896;2024-03-23T05:46:57;26.17;;;4.83;;
5125;SDS011;63008;53.112;8.896;2024-03-23T05:48:58;30.07;;;5.23;;
5125;SDS011;63008;53.112;8.896;2024-03-23T05:51:02;28.57;;;5.97;;
5125;SDS011;63008;53.112;8.896;2024-03-23T05:53:03;27.70;;;5.90;;
5125;SDS011;63008;53.112;8.896;2024-03-23T05:55:06;23.87;;;5.50;;
5125;SDS011;63008;53.112;8.896;2024-03-23T05:57:07;32.83;;;5.30;;
5125;SDS011;63008;53.112;8.896;2024-03-23T05:59:08;31.17;;;5.20;;
5125;SDS011;63008;53.112;8.896;2024-03-23T06:01:09;40.87;;;6.90;;
5125;SDS011;63008;53.112;8.896;2024-03-23T06:03:10;29.83;;;5.40;;
5125;SDS011;63008;53.112;8.896;2024-03-23T06:05:11;37.13;;;6.10;;
5125;SDS011;63008;53.112;8.896;2024-03-23T06:07:12;28.53;;;5.50;;
5125;SDS011;63008;53.112;8.896;2024-03-23T06:09:14;31.87;;;5.37;;
5125;SDS011;63008;53.112;8.896;2024-03-23T06:11:15;34.07;;;6.50;;
5125;SDS011;63008;53.112;8.896;2024-03-23T06:13:16;26.00;;;5.07;;
5125;SDS011;63008;53.112;8.896;2024-03-23T06:15:18;32.20;;;6.00;;
5125;SDS011;63008;53.112;8.896;2024-03-23T06:17:20;25.07;;;5.13;;
5125;SDS011;63008;53.112;8.896;2024-03-23T06:19:21;22.90;;;5.27;;
5125;SDS011;63008;53.112;8.896;2024-03-23T06:21:22;25.97;;;5.03;;
5125;SDS011;63008;53.112;8.896;2024-03-23T06:23:24;30.70;;;5.93;;
5125;SDS011;63008;53.112;8.896;2024-03-23T06:25:25;34.87;;;6.23;;
5125;SDS011;63008;53.112;8.896;2024-03-23T06:27:26;33.07;;;6.57;;
5125;SDS011;63008;53.112;8.896;2024-03-23T06:29:27;27.73;;;5.27;;
5125;SDS011;63008;53.112;8.896;2024-03-23T06:31:31;22.77;;;4.90;;
5125;SDS011;63008;53.112;8.896;2024-03-23T06:33:32;30.13;;;4.83;;
5125;SDS011;63008;53.112;8.896;2024-03-23T06:35:33;23.77;;;5.67;;
5125;SDS011;63008;53.112;8.896;2024-03-23T06:37:35;23.70;;;5.17;;
5125;SDS011;63008;53.112;8.896;2024-03-23T06:39:37;37.60;;;6.37;;
5125;SDS011;63008;53.112;8.896;2024-03-23T06:41:38;28.03;;;6.60;;
5125;SDS011;63008;53.112;8.896;2024-03-23T06:43:39;21.77;;;5.37;;
5125;SDS011;63008;53.112;8.896;2024-03-23T06:45:40;22.50;;;5.37;;
5125;SDS011;63008;53.112;8.896;2024-03-23T06:47:41;23.00;;;5.40;;
5125;SDS011;63008;53.112;8.896;2024-03-23T06:49:42;25.63;;;4.27;;
5125;SDS011;63008;53.112;8.896;2024-03-23T06:51:43;23.03;;;6.80;;
5125;SDS011;63008;53.112;8.896;2024-03-23T06:53:45;20.20;;;5.10;;
5125;SDS011;63008;53.112;8.896;2024-03-23T06:55:52;27.00;;;6.60;;
5125;SDS011;63008;53.112;8.896;2024-03-23T06:57:54;31.13;;;5.03;;
5125;SDS011;63008;53.112;8.896;2024-03-23T06:59:55;23.90;;;5.07;;
5125;SDS011;63008;53.112;8.896;2024-03-23T07:01:56;21.23;;;5.57;;
5125;SDS011;63008;53.112;8.896;2024-03-23T07:03:57;30.13;;;4.67;;
5125;SDS011;63008;53.112;8.896;2024-03-23T07:05:58;19.83;;;3.60;;
5125;SDS011;63008;53.112;8.896;2024-03-23T07:07:59;23.80;;;4.80;;
5125;SDS011;63008;53.112;8.896;2024-03-23T07:10:00;17.37;;;4.47;;
5125;SDS011;63008;53.112;8.896;2024-03-23T07:12:01;33.07;;;4.43;;
5125;SDS011;63008;53.112;8.896;2024-03-23T07:14:02;23.50;;;4.10;;
5125;SDS011;63008;53.112;8.896;2024-03-23T07:16:06;24.00;;;4.00;;
5125;SDS011;63008;53.112;8.896;2024-03-23T07:18:07;13.83;;;5.10;;
5125;SDS011;63008;53.112;8.896;2024-03-23T07:20:08;15.43;;;4.17;;
5125;SDS011;63008;53.112;8.896;2024-03-23T07:22:11;22.10;;;4.17;;
5125;SDS011;63008;53.112;8.896;2024-03-23T07:24:12;22.70;;;4.60;;
5125;SDS011;63008;53.112;8.896;2024-03-23T07:26:13;24.43;;;4.83;;
5125;SDS011;63008;53.112;8.896;2024-03-23T07:28:14;28.53;;;4.37;;
5125;SDS011;63008;53.112;8.896;2024-03-23T07:30:15;20.43;;;3.73;;
5125;SDS011;63008;53.112;8.896;2024-03-23T07:32:16;14.37;;;3.60;;
5125;SDS011;63008;53.112;8.896;2024-03-23T07:34:17;24.20;;;4.23;;
5125;SDS011;63008;53.112;8.896;2024-03-23T07:36:18;27.07;;;3.80;;
5125;SDS011;63008;53.112;8.896;2024-03-23T07:38:19;18.60;;;3.37;;
5125;SDS011;63008;53.112;8.896;2024-03-23T07:40:20;19.27;;;3.47;;
5125;SDS011;63008;53.112;8.896;2024-03-23T07:42:21;27.87;;;4.30;;
5125;SDS011;63008;53.112;8.896;2024-03-23T07:44:22;16.53;;;3.70;;
5125;SDS011;63008;53.112;8.896;2024-03-23T07:46:23;13.03;;;3.20;;
5125;SDS011;63008;53.112;8.896;2024-03-23T07:48:26;23.37;;;3.70;;
5125;SDS011;63008;53.112;8.896;2024-03-23T07:50:27;23.13;;;3.50;;
5125;SDS011;63008;53.112;8.896;2024-03-23T07:52:28;17.83;;;3.60;;
5125;SDS011;63008;53.112;8.896;2024-03-23T07:54:29;18.93;;;3.20;;
5125;SDS011;63008;53.112;8.896;2024-03-23T07:56:30;14.43;;;3.33;;
5125;SDS011;63008;53.112;8.896;2024-03-23T07:58:32;16.87;;;3.60;;
5125;SDS011;63008;53.112;8.896;2024-03-23T08:00:33;25.37;;;3.97;;
5125;SDS011;63008;53.112;8.896;2024-03-23T08:02:34;16.40;;;4.20;;
5125;SDS011;63008;53.112;8.896;2024-03-23T08:04:35;19.13;;;4.27;;
5125;SDS011;63008;53.112;8.896;2024-03-23T08:06:36;19.40;;;4.07;;
5125;SDS011;63008;53.112;8.896;2024-03-23T08:08:39;24.50;;;3.90;;
5125;SDS011;63008;53.112;8.896;2024-03-23T08:10:50;17.73;;;4.10;;
5125;SDS011;63008;53.112;8.896;2024-03-23T08:12:52;11.90;;;3.90;;
5125;SDS011;63008;53.112;8.896;2024-03-23T08:14:53;18.23;;;4.60;;
5125;SDS011;63008;53.112;8.896;2024-03-23T08:16:54;19.60;;;3.80;;
5125;SDS011;63008;53.112;8.896;2024-03-23T08:18:55;19.97;;;4.93;;
5125;SDS011;63008;53.112;8.896;2024-03-23T08:21:00;24.83;;;3.70;;
5125;SDS011;63008;53.112;8.896;2024-03-23T08:23:01;20.60;;;3.20;;
5125;SDS011;63008;53.112;8.896;2024-03-23T08:25:03;17.30;;;3.43;;
5125;SDS011;63008;53.112;8.896;2024-03-23T08:27:04;16.23;;;3.97;;
5125;SDS011;63008;53.112;8.896;2024-03-23T08:29:05;25.73;;;4.10;;
5125;SDS011;63008;53.112;8.896;2024-03-23T08:31:08;16.27;;;3.30;;
5125;SDS011;63008;53.112;8.896;2024-03-23T08:33:10;15.00;;;2.90;;
5125;SDS011;63008;53.112;8.896;2024-03-23T08:35:11;21.97;;;3.57;;
5125;SDS011;63008;53.112;8.896;2024-03-23T08:37:12;17.27;;;3.47;;
5125;SDS011;63008;53.112;8.896;2024-03-23T08:39:13;17.20;;;4.87;;
5125;SDS011;63008;53.112;8.896;2024-03-23T08:41:14;13.70;;;3.07;;
5125;SDS011;63008;53.112;8.896;2024-03-23T08:43:15;11.37;;;3.17;;
5125;SDS011;63008;53.112;8.896;2024-03-23T08:45:16;19.53;;;3.87;;
5125;SDS011;63008;53.112;8.896;2024-03-23T08:47:17;15.13;;;3.47;;
5125;SDS011;63008;53.112;8.896;2024-03-23T08:49:18;13.07;;;2.83;;
5125;SDS011;63008;53.112;8.896;2024-03-23T08:51:20;15.87;;;2.63;;
5125;SDS011;63008;53.112;8.896;2024-03-23T08:53:21;10.57;;;2.10;;
5125;SDS011;63008;53.112;8.896;2024-03-23T08:55:22;9.63;;;2.33;;
5125;SDS011;63008;53.112;8.896;2024-03-23T08:57:23;10.40;;;2.70;;
5125;SDS011;63008;53.112;8.896;2024-03-23T08:59:24;17.30;;;3.10;;
5125;SDS011;63008;53.112;8.896;2024-03-23T09:01:25;11.90;;;2.83;;
5125;SDS011;63008;53.112;8.896;2024-03-23T09:03:26;11.87;;;3.20;;
5125;SDS011;63008;53.112;8.896;2024-03-23T09:05:27;19.20;;;3.70;;
5125;SDS011;63008;53.112;8.896;2024-03-23T09:07:29;12.90;;;2.83;;
5125;SDS011;63008;53.112;8.896;2024-03-23T09:09:31;9.20;;;3.07;;
5125;SDS011;63008;53.112;8.896;2024-03-23T09:11:32;8.23;;;2.60;;
5125;SDS011;63008;53.112;8.896;2024-03-23T09:13:33;9.20;;;2.43;;
5125;SDS011;63008;53.112;8.896;2024-03-23T09:15:35;11.00;;;2.20;;
5125;SDS011;63008;53.112;8.896;2024-03-23T09:17:37;8.47;;;2.03;;
5125;SDS011;63008;53.112;8.896;2024-03-23T09:19:38;9.80;;;2.27;;
5125;SDS011;63008;53.112;8.896;2024-03-23T09:21:40;10.80;;;2.23;;
5125;SDS011;63008;53.112;8.896;2024-03-23T09:23:44;10.23;;;2.40;;
5125;SDS011;63008;53.112;8.896;2024-03-23T09:25:45;16.93;;;3.00;;
5125;SDS011;63008;53.112;8.896;2024-03-23T09:27:46;16.00;;;3.50;;
5125;SDS011;63008;53.112;8.896;2024-03-23T09:29:47;11.73;;;2.73;;
5125;SDS011;63008;53.112;8.896;2024-03-23T09:31:48;7.30;;;2.03;;
5125;SDS011;63008;53.112;8.896;2024-03-23T09:33:49;8.90;;;2.40;;
5125;SDS011;63008;53.112;8.896;2024-03-23T09:35:50;10.90;;;2.30;;
5125;SDS011;63008;53.112;8.896;2024-03-23T09:37:51;11.00;;;1.97;;
5125;SDS011;63008;53.112;8.896;2024-03-23T09:39:52;11.80;;;2.30;;
5125;SDS011;63008;53.112;8.896;2024-03-23T09:41:56;10.87;;;2.50;;
5125;SDS011;63008;53.112;8.896;2024-03-23T09:43:58;9.43;;;3.13;;
5125;SDS011;63008;53.112;8.896;2024-03-23T09:45:59;7.30;;;2.47;;
5125;SDS011;63008;53.112;8.896;2024-03-23T09:48:00;11.43;;;2.07;;
5125;SDS011;63008;53.112;8.896;2024-03-23T09:50:01;11.20;;;3.10;;
5125;SDS011;63008;53.112;8.896;2024-03-23T09:52:02;11.83;;;2.40;;
5125;SDS011;63008;53.112;8.896;2024-03-23T09:54:04;8.60;;;2.17;;
5125;SDS011;63008;53.112;8.896;2024-03-23T09:56:05;7.33;;;1.97;;
5125;SDS011;63008;53.112;8.896;2024-03-23T09:58:06;8.50;;;2.10;;
5125;SDS011;63008;53.112;8.896;2024-03-23T10:00:07;8.00;;;1.83;;
5125;SDS011;63008;53.112;8.896;2024-03-23T10:02:08;5.80;;;1.90;;
5125;SDS011;63008;53.112;8.896;2024-03-23T10:04:11;11.23;;;2.60;;
5125;SDS011;63008;53.112;8.896;2024-03-23T10:06:13;8.23;;;2.03;;
5125;SDS011;63008;53.112;8.896;2024-03-23T10:10:15;8.50;;;2.47;;
5125;SDS011;63008;53.112;8.896;2024-03-23T10:12:19;8.27;;;1.97;;
5125;SDS011;63008;53.112;8.896;2024-03-23T10:14:29;4.43;;;1.87;;
5125;SDS011;63008;53.112;8.896;2024-03-23T10:16:31;9.60;;;2.70;;
5125;SDS011;63008;53.112;8.896;2024-03-23T10:18:32;11.30;;;2.80;;
5125;SDS011;63008;53.112;8.896;2024-03-23T10:20:38;6.10;;;1.87;;
5125;SDS011;63008;53.112;8.896;2024-03-23T10:22:39;9.30;;;2.30;;
5125;SDS011;63008;53.112;8.896;2024-03-23T10:24:41;3.90;;;1.53;;
5125;SDS011;63008;53.112;8.896;2024-03-23T10:26:42;7.70;;;1.70;;
5125;SDS011;63008;53.112;8.896;2024-03-23T10:28:53;4.53;;;1.37;;
5125;SDS011;63008;53.112;8.896;2024-03-23T10:31:03;11.30;;;1.73;;
5125;SDS011;63008;53.112;8.896;2024-03-23T10:33:12;7.80;;;2.53;;
5125;SDS011;63008;53.112;8.896;2024-03-23T10:35:23;7.20;;;1.90;;
5125;SDS011;63008;53.112;8.896;2024-03-23T10:37:24;5.40;;;2.20;;
5125;SDS011;63008;53.112;8.896;2024-03-23T10:39:25;6.33;;;1.60;;
5125;SDS011;63008;53.112;8.896;2024-03-23T10:41:26;7.40;;;1.73;;
5125;SDS011;63008;53.112;8.896;2024-03-23T10:43:29;2.77;;;1.77;;
5125;SDS011;63008;53.112;8.896;2024-03-23T10:45:33;5.33;;;1.80;;
5125;SDS011;63008;53.112;8.896;2024-03-23T10:47:35;6.83;;;1.53;;
5125;SDS011;63008;53.112;8.896;2024-03-23T10:49:37;6.27;;;1.70;;
5125;SDS011;63008;53.112;8.896;2024-03-23T10:51:38;6.23;;;1.47;;
5125;SDS011;63008;53.112;8.896;2024-03-23T10:53:39;5.23;;;2.00;;
5125;SDS011;63008;53.112;8.896;2024-03-23T10:55:40;6.63;;;1.90;;
5125;SDS011;63008;53.112;8.896;2024-03-23T10:57:49;7.00;;;2.50;;
5125;SDS011;63008;53.112;8.896;2024-03-23T10:59:55;13.40;;;2.17;;
5125;SDS011;63008;53.112;8.896;2024-03-23T11:02:00;4.23;;;1.90;;
5125;SDS011;63008;53.112;8.896;2024-03-23T11:04:03;7.00;;;1.90;;
5125;SDS011;63008;53.112;8.896;2024-03-23T11:06:04;3.57;;;1.50;;
5125;SDS011;63008;53.112;8.896;2024-03-23T11:08:06;12.83;;;1.87;;
5125;SDS011;63008;53.112;8.896;2024-03-23T11:10:24;3.93;;;2.17;;
5125;SDS011;63008;53.112;8.896;2024-03-23T11:12:36;3.77;;;1.53;;
5125;SDS011;63008;53.112;8.896;2024-03-23T11:14:37;6.30;;;1.80;;
5125;SDS011;63008;53.112;8.896;2024-03-23T11:16:38;8.40;;;2.10;;
5125;SDS011;63008;53.112;8.896;2024-03-23T11:18:40;9.40;;;2.10;;
5125;SDS011;63008;53.112;8.896;2024-03-23T11:20:42;8.53;;;1.37;;
5125;SDS011;63008;53.112;8.896;2024-03-23T11:22:46;8.53;;;2.00;;
5125;SDS011;63008;53.112;8.896;2024-03-23T11:24:50;6.70;;;1.73;;
5125;SDS011;63008;53.112;8.896;2024-03-23T11:26:51;8.27;;;1.93;;
5125;SDS011;63008;53.112;8.896;2024-03-23T11:29:08;10.00;;;2.43;;
5125;SDS011;63008;53.112;8.896;2024-03-23T11:31:10;4.70;;;1.57;;
5125;SDS011;63008;53.112;8.896;2024-03-23T11:33:11;4.43;;;1.63;;
5125;SDS011;63008;53.112;8.896;2024-03-23T11:35:25;5.80;;;1.90;;
5125;SDS011;63008;53.112;8.896;2024-03-23T11:37:27;11.10;;;1.77;;
5125;SDS011;63008;53.112;8.896;2024-03-23T11:39:28;4.73;;;1.77;;
5125;SDS011;63008;53.112;8.896;2024-03-23T11:41:29;3.70;;;1.10;;
5125;SDS011;63008;53.112;8.896;2024-03-23T11:43:30;4.33;;;1.10;;
5125;SDS011;63008;53.112;8.896;2024-03-23T11:45:35;6.63;;;1.60;;
5125;SDS011;63008;53.112;8.896;2024-03-23T11:47:36;5.90;;;2.17;;
5125;SDS011;63008;53.112;8.896;2024-03-23T11:49:37;6.87;;;1.93;;
5125;SDS011;63008;53.112;8.896;2024-03-23T11:51:41;5.53;;;2.03;;
5125;SDS011;63008;53.112;8.896;2024-03-23T11:53:42;6.67;;;1.80;;
5125;SDS011;63008;53.112;8.896;2024-03-23T11:55:49;4.73;;;1.60;;
5125;SDS011;63008;53.112;8.896;2024-03-23T11:57:52;4.13;;;1.40;;
5125;SDS011;63008;53.112;8.896;2024-03-23T11:59:53;4.27;;;1.40;;
5125;SDS011;63008;53.112;8.896;2024-03-23T12:01:54;7.20;;;2.27;;
5125;SDS011;63008;53.112;8.896;2024-03-23T12:03:55;2.97;;;1.50;;
5125;SDS011;63008;53.112;8.896;2024-03-23T12:05:57;7.27;;;1.87;;
5125;SDS011;63008;53.112;8.896;2024-03-23T12:08:15;7.13;;;1.90;;
5125;SDS011;63008;53.112;8.896;2024-03-23T12:10:20;6.57;;;1.63;;
5125;SDS011;63008;53.112;8.896;2024-03-23T12:12:21;3.63;;;1.43;;
5125;SDS011;63008;53.112;8.896;2024-03-23T12:14:22;9.30;;;1.60;;
5125;SDS011;63008;53.112;8.896;2024-03-23T12:16:24;4.37;;;1.70;;
5125;SDS011;63008;53.112;8.896;2024-03-23T12:18:27;3.63;;;1.57;;
5125;SDS011;63008;53.112;8.896;2024-03-23T12:20:28;3.50;;;1.07;;
5125;SDS011;63008;53.112;8.896;2024-03-23T12:22:29;3.80;;;1.40;;
5125;SDS011;63008;53.112;8.896;2024-03-23T12:24:31;8.20;;;1.63;;
5125;SDS011;63008;53.112;8.896;2024-03-23T12:26:34;4.97;;;0.90;;
5125;SDS011;63008;53.112;8.896;2024-03-23T12:28:35;5.10;;;0.80;;
5125;SDS011;63008;53.112;8.896;2024-03-23T12:30:40;2.90;;;0.70;;
5125;SDS011;63008;53.112;8.896;2024-03-23T12:32:42;1.40;;;0.73;;
5125;SDS011;63008;53.112;8.896;2024-03-23T12:34:43;0.60;;;0.57;;
5125;SDS011;63008;53.112;8.896;2024-03-23T12:36:44;0.50;;;0.40;;
5125;SDS011;63008;53.112;8.896;2024-03-23T12:38:45;1.00;;;0.47;;
5125;SDS011;63008;53.112;8.896;2024-03-23T12:40:49;1.60;;;0.57;;
5125;SDS011;63008;53.112;8.896;2024-03-23T12:42:51;2.10;;;0.80;;
5125;SDS011;63008;53.112;8.896;2024-03-23T12:44:52;2.50;;;0.90;;
5125;SDS011;63008;53.112;8.896;2024-03-23T12:46:53;1.70;;;0.80;;
5125;SDS011;63008;53.112;8.896;2024-03-23T12:48:54;5.50;;;0.80;;
5125;SDS011;63008;53.112;8.896;2024-03-23T12:50:55;1.20;;;0.70;;
5125;SDS011;63008;53.112;8.896;2024-03-23T12:52:56;2.63;;;0.90;;
5125;SDS011;63008;53.112;8.896;2024-03-23T12:54:57;3.03;;;0.80;;
5125;SDS011;63008;53.112;8.896;2024-03-23T12:56:59;2.63;;;0.97;;
5125;SDS011;63008;53.112;8.896;2024-03-23T12:59:00;1.27;;;0.60;;
5125;SDS011;63008;53.112;8.896;2024-03-23T13:01:01;2.00;;;0.87;;
5125;SDS011;63008;53.112;8.896;2024-03-23T13:03:02;0.67;;;0.60;;
5125;SDS011;63008;53.112;8.896;2024-03-23T13:05:05;4.17;;;0.93;;
5125;SDS011;63008;53.112;8.896;2024-03-23T13:07:06;12.77;;;1.30;;
5125;SDS011;63008;53.112;8.896;2024-03-23T13:09:08;3.20;;;0.63;;
5125;SDS011;63008;53.112;8.896;2024-03-23T13:11:09;4.93;;;0.70;;
5125;SDS011;63008;53.112;8.896;2024-03-23T13:13:11;1.10;;;0.90;;